Wilmette, IL (60091)

7:52 AM CST on February 07, 2016 (GMT -0600)
West Wilmette | | Change Station
CLOSE
Current Station
Personal Weather Station
Location: Wilmette, IL
Elevation: 633 ft
Nearby Weather Stations

Elev 633 ft 42.08 °N, 87.74 °W | Updated 3 minutes ago

Clear
Clear
39.4 °F
Feels Like 36 °F
N
5.3
Wind Variable Wind from SSE

Today
High -- | Low -- °F
--% Chance of Precip.
Yesterday
High -- | Low -- °F
Precip. -- in
Pressure 29.87 in
Visibility 10.0 miles
Clouds Clear
Windchill 36 °F
Dew Point 28 °F
Humidity 62%
Rainfall 0.00 in
Snow Depth Not available.
6:57 AM 5:12 PM
Waning Crescent, 1% visible
METAR KPWK 071252Z 21013G17KT 10SM CLR 04/M02 A2985 RMK AO2 SLP114 T00391017
Pressure 29.87 in
Visibility 10.0 miles
Clouds Clear
Windchill 36 °F
Dew Point 28 °F
Humidity 62%
Rainfall 0.00 in
Snow Depth Not available.
6:57 AM 5:12 PM
Waning Crescent, 1% visible
METAR KPWK 071252Z 21013G17KT 10SM CLR 04/M02 A2985 RMK AO2 SLP114 T00391017

10-Day Weather Forecast

Almanac

Astronomy

Feb. 07, 2016 Rise Set
Actual Time
Civil Twilight
Nautical Twilight
Astronomical Twilight
Moon
Length of Visible Light
Length of Day
Tomorrow will be .
, % of the Moon is Illuminated

Today's Extremes

State Highs State Lows

Community

WunderPhotos

Upload Photos

1,891,190 photos uploaded!

WunderBlog® & News

Nearby

Air Quality

  Air Quality AQ Index Pollutant
Not available.

Snow Depth

Station Depth Elevation

Earthquake Activity

City Distance Mag. Time & Date
Minimum magnitude displayed is 2.5.

Coastal Water Temperatures

Place Temperature

Stations

Nearby Weather Stations

Station Location Temp. Windchill Dew Point Humidity Wind Precip. Elev Updated Type
                   

Watches & Warnings

There are currently no watches in effect.